SUN375 ROAH-RJFF
Flight info
| Callsign | SUN375 |
|---|---|
| Flight time | 1h 21m |
| Altitude | 41000 |
| Route | AMAMI Y25 ISKUP |
| Aircraft | A35K/H-SDE2E3GHIJ3J4J5LM1ORWXY/LB1D1 |
Departure
| Time | 2026-04-26 18:49 |
|---|---|
| Airport | Naha International Airport (ROAH) |
Arrival
| Time | 2026-04-26 20:11 |
|---|---|
| Airport | Fukuoka Airport (RJFF) |
| Time | Latitude | Longitude | Altitude | Speed | Heading |
|---|---|---|---|---|---|
| 2026-04-26 18:05 | 26.21584 | 127.65014 | 28 ft | 0 kts | 159° |
| 2026-04-26 18:21 | 26.21581 | 127.65015 | 28 ft | 3 kts | 158° |
| 2026-04-26 18:21 | 26.21568 | 127.65022 | 28 ft | 0 kts | 154° |
| 2026-04-26 18:24 | 26.21584 | 127.65014 | 28 ft | 4 kts | 163° |
| 2026-04-26 18:25 | 26.21610 | 127.65009 | 27 ft | 4 kts | 187° |
| 2026-04-26 18:25 | 26.21635 | 127.65018 | 27 ft | 4 kts | 219° |
| 2026-04-26 18:25 | 26.21652 | 127.65040 | 26 ft | 4 kts | 243° |
| 2026-04-26 18:25 | 26.21658 | 127.65055 | 25 ft | 0 kts | 247° |
| 2026-04-26 18:29 | 26.21654 | 127.65044 | 28 ft | 4 kts | 247° |
| 2026-04-26 18:29 | 26.21638 | 127.65002 | 28 ft | 8 kts | 247° |
| 2026-04-26 18:30 | 26.21607 | 127.64935 | 28 ft | 11 kts | 233° |
| 2026-04-26 18:30 | 26.21544 | 127.64863 | 28 ft | 15 kts | 224° |
| 2026-04-26 18:30 | 26.21471 | 127.64785 | 28 ft | 14 kts | 223° |
| 2026-04-26 18:30 | 26.21373 | 127.64745 | 28 ft | 17 kts | 182° |
| 2026-04-26 18:31 | 26.21242 | 127.64751 | 28 ft | 20 kts | 178° |
| 2026-04-26 18:31 | 26.21117 | 127.64757 | 28 ft | 10 kts | 178° |
| 2026-04-26 18:31 | 26.21086 | 127.64758 | 28 ft | 0 kts | 178° |
| 2026-04-26 18:38 | 26.21053 | 127.64758 | 28 ft | 12 kts | 182° |
| 2026-04-26 18:39 | 26.20942 | 127.64737 | 28 ft | 18 kts | 181° |
| 2026-04-26 18:39 | 26.20808 | 127.64743 | 28 ft | 20 kts | 178° |
| 2026-04-26 18:39 | 26.20675 | 127.64750 | 28 ft | 17 kts | 177° |
| 2026-04-26 18:39 | 26.20551 | 127.64756 | 28 ft | 17 kts | 178° |
| 2026-04-26 18:40 | 26.20438 | 127.64761 | 28 ft | 13 kts | 177° |
| 2026-04-26 18:40 | 26.20356 | 127.64765 | 28 ft | 5 kts | 178° |
| 2026-04-26 18:40 | 26.20344 | 127.64765 | 28 ft | 4 kts | 178° |
| 2026-04-26 18:40 | 26.20294 | 127.64768 | 28 ft | 11 kts | 178° |
| 2026-04-26 18:41 | 26.20192 | 127.64773 | 28 ft | 18 kts | 177° |
| 2026-04-26 18:41 | 26.20042 | 127.64780 | 28 ft | 25 kts | 178° |
| 2026-04-26 18:41 | 26.19854 | 127.64790 | 28 ft | 29 kts | 178° |
| 2026-04-26 18:41 | 26.19659 | 127.64798 | 28 ft | 29 kts | 178° |
| 2026-04-26 18:42 | 26.19467 | 127.64807 | 28 ft | 26 kts | 177° |
| 2026-04-26 18:42 | 26.19289 | 127.64815 | 28 ft | 25 kts | 178° |
| 2026-04-26 18:42 | 26.19109 | 127.64824 | 28 ft | 27 kts | 177° |
| 2026-04-26 18:42 | 26.18919 | 127.64833 | 28 ft | 28 kts | 177° |
| 2026-04-26 18:43 | 26.18730 | 127.64841 | 28 ft | 21 kts | 178° |
| 2026-04-26 18:43 | 26.18631 | 127.64847 | 28 ft | 16 kts | 177° |
| 2026-04-26 18:43 | 26.18516 | 127.64852 | 28 ft | 17 kts | 178° |
| 2026-04-26 18:43 | 26.18405 | 127.64857 | 28 ft | 14 kts | 177° |
| 2026-04-26 18:44 | 26.18329 | 127.64861 | 28 ft | 6 kts | 179° |
| 2026-04-26 18:44 | 26.18275 | 127.64851 | 28 ft | 5 kts | 205° |
| 2026-04-26 18:44 | 26.18268 | 127.64846 | 28 ft | 0 kts | 215° |
| 2026-04-26 18:45 | 26.18261 | 127.64837 | 28 ft | 2 kts | 230° |
| 2026-04-26 18:45 | 26.18249 | 127.64805 | 28 ft | 7 kts | 252° |
| 2026-04-26 18:45 | 26.18245 | 127.64765 | 28 ft | 0 kts | 266° |
| 2026-04-26 18:47 | 26.18244 | 127.64761 | 28 ft | 3 kts | 267° |
| 2026-04-26 18:47 | 26.18249 | 127.64683 | 27 ft | 10 kts | 291° |
| 2026-04-26 18:47 | 26.18297 | 127.64657 | 27 ft | 0 kts | 356° |
| 2026-04-26 18:48 | 26.18298 | 127.64657 | 27 ft | 0 kts | 356° |
| 2026-04-26 18:49 | 26.18495 | 127.64646 | 28 ft | 69 kts | 357° |
| 2026-04-26 18:49 | 26.19230 | 127.64610 | 30 ft | 140 kts | 358° |
| 2026-04-26 18:49 | 26.20354 | 127.64566 | 424 ft | 168 kts | 356° |
| 2026-04-26 18:49 | 26.21528 | 127.64531 | 1320 ft | 172 kts | 356° |
| 2026-04-26 18:50 | 26.22815 | 127.64461 | 1787 ft | 200 kts | 355° |
| 2026-04-26 18:50 | 26.24277 | 127.64357 | 2273 ft | 222 kts | 353° |
| 2026-04-26 18:50 | 26.25799 | 127.63825 | 2887 ft | 237 kts | 332° |
| 2026-04-26 18:50 | 26.27276 | 127.62934 | 3719 ft | 246 kts | 329° |
| 2026-04-26 18:51 | 26.28783 | 127.61991 | 4610 ft | 250 kts | 329° |
| 2026-04-26 18:51 | 26.30313 | 127.61041 | 5552 ft | 254 kts | 328° |
| 2026-04-26 18:51 | 26.31879 | 127.60074 | 6402 ft | 262 kts | 327° |
| 2026-04-26 18:51 | 26.33493 | 127.59080 | 7253 ft | 269 kts | 327° |
| 2026-04-26 18:52 | 26.35204 | 127.58024 | 7741 ft | 294 kts | 327° |
| 2026-04-26 18:52 | 26.36425 | 127.57269 | 8007 ft | 312 kts | 327° |
| 2026-04-26 18:52 | 26.39079 | 127.55628 | 8676 ft | 337 kts | 326° |
| 2026-04-26 18:52 | 26.40383 | 127.54651 | 9004 ft | 346 kts | 317° |
| 2026-04-26 18:53 | 26.41944 | 127.52577 | 9429 ft | 355 kts | 295° |
| 2026-04-26 18:53 | 26.42667 | 127.49947 | 10036 ft | 359 kts | 274° |
| 2026-04-26 18:53 | 26.42419 | 127.47179 | 10717 ft | 362 kts | 253° |
| 2026-04-26 18:53 | 26.41231 | 127.44688 | 11435 ft | 370 kts | 233° |
| 2026-04-26 18:54 | 26.38486 | 127.42378 | 12428 ft | 384 kts | 208° |
| 2026-04-26 18:54 | 26.36799 | 127.41638 | 12933 ft | 388 kts | 204° |
| 2026-04-26 18:54 | 26.34159 | 127.40865 | 13627 ft | 400 kts | 193° |
| 2026-04-26 18:54 | 26.31341 | 127.40741 | 14271 ft | 409 kts | 185° |
| 2026-04-26 18:55 | 26.28523 | 127.40814 | 14919 ft | 412 kts | 184° |
| 2026-04-26 18:55 | 26.25649 | 127.40890 | 15587 ft | 414 kts | 185° |
| 2026-04-26 18:55 | 26.22762 | 127.40948 | 16254 ft | 417 kts | 185° |
| 2026-04-26 18:55 | 26.19857 | 127.40994 | 16984 ft | 417 kts | 185° |
| 2026-04-26 18:56 | 26.16948 | 127.41034 | 17778 ft | 418 kts | 186° |
| 2026-04-26 18:56 | 26.14029 | 127.41087 | 18413 ft | 422 kts | 184° |
| 2026-04-26 18:56 | 26.11075 | 127.41475 | 18922 ft | 435 kts | 174° |
| 2026-04-26 18:56 | 26.08161 | 127.42546 | 19444 ft | 450 kts | 162° |
| 2026-04-26 18:57 | 26.05448 | 127.44363 | 19987 ft | 466 kts | 148° |
| 2026-04-26 18:57 | 26.03839 | 127.45972 | 20405 ft | 476 kts | 139° |
| 2026-04-26 18:57 | 26.01290 | 127.50083 | 21276 ft | 493 kts | 120° |
| 2026-04-26 18:57 | 26.00185 | 127.53721 | 21937 ft | 505 kts | 105° |
| 2026-04-26 18:58 | 25.99903 | 127.57679 | 22483 ft | 517 kts | 90° |
| 2026-04-26 18:58 | 26.00520 | 127.61647 | 23022 ft | 527 kts | 74° |
| 2026-04-26 18:58 | 26.02004 | 127.65372 | 23508 ft | 532 kts | 58° |
| 2026-04-26 18:58 | 26.04244 | 127.68655 | 23982 ft | 534 kts | 46° |
| 2026-04-26 18:59 | 26.06769 | 127.71729 | 24408 ft | 539 kts | 46° |
| 2026-04-26 18:59 | 26.09323 | 127.74841 | 24684 ft | 549 kts | 47° |
| 2026-04-26 18:59 | 26.11863 | 127.78046 | 25140 ft | 555 kts | 51° |
| 2026-04-26 18:59 | 26.13953 | 127.81625 | 25680 ft | 557 kts | 65° |
| 2026-04-26 19:00 | 26.15273 | 127.85690 | 26196 ft | 555 kts | 80° |
| 2026-04-26 19:00 | 26.16277 | 127.89851 | 26669 ft | 562 kts | 74° |
| 2026-04-26 19:00 | 26.17878 | 127.93770 | 27049 ft | 572 kts | 60° |
| 2026-04-26 19:00 | 26.20291 | 127.97321 | 27430 ft | 579 kts | 46° |
| 2026-04-26 19:01 | 26.23388 | 128.00226 | 27811 ft | 582 kts | 31° |
| 2026-04-26 19:01 | 26.26856 | 128.02564 | 28234 ft | 585 kts | 28° |
| 2026-04-26 19:01 | 26.30369 | 128.04893 | 28631 ft | 590 kts | 29° |
| 2026-04-26 19:01 | 26.33903 | 128.07255 | 28993 ft | 594 kts | 29° |
| 2026-04-26 19:02 | 26.37451 | 128.09643 | 29468 ft | 595 kts | 29° |
| 2026-04-26 19:02 | 26.40997 | 128.12039 | 29929 ft | 597 kts | 30° |
| 2026-04-26 19:02 | 26.44555 | 128.14448 | 30162 ft | 601 kts | 30° |
| 2026-04-26 19:02 | 26.46975 | 128.16088 | 30250 ft | 604 kts | 30° |
| 2026-04-26 19:03 | 26.51750 | 128.19329 | 30361 ft | 608 kts | 30° |
| 2026-04-26 19:03 | 26.55362 | 128.21785 | 30503 ft | 608 kts | 30° |
| 2026-04-26 19:03 | 26.58981 | 128.24246 | 30635 ft | 609 kts | 30° |
| 2026-04-26 19:03 | 26.62600 | 128.26710 | 30767 ft | 609 kts | 30° |
| 2026-04-26 19:04 | 26.66183 | 128.29236 | 30882 ft | 610 kts | 34° |
| 2026-04-26 19:04 | 26.69437 | 128.32252 | 30973 ft | 611 kts | 46° |
| 2026-04-26 19:04 | 26.74886 | 128.39548 | 31195 ft | 609 kts | 53° |
| 2026-04-26 19:05 | 26.80131 | 128.46975 | 31462 ft | 609 kts | 53° |
| 2026-04-26 19:05 | 26.82765 | 128.50697 | 31591 ft | 609 kts | 53° |
| 2026-04-26 19:05 | 26.85394 | 128.54408 | 31752 ft | 610 kts | 53° |
| 2026-04-26 19:06 | 26.88042 | 128.58147 | 31868 ft | 610 kts | 53° |
| 2026-04-26 19:06 | 26.90692 | 128.61836 | 32386 ft | 602 kts | 51° |
| 2026-04-26 19:06 | 26.93624 | 128.65123 | 33263 ft | 593 kts | 40° |
| 2026-04-26 19:06 | 26.96981 | 128.67755 | 33934 ft | 586 kts | 28° |
| 2026-04-26 19:07 | 27.00532 | 128.69985 | 34406 ft | 584 kts | 26° |
| 2026-04-26 19:07 | 27.04112 | 128.72137 | 34854 ft | 583 kts | 26° |
| 2026-04-26 19:07 | 27.07677 | 128.74277 | 35303 ft | 581 kts | 26° |
| 2026-04-26 19:07 | 27.11219 | 128.76413 | 35734 ft | 579 kts | 26° |
| 2026-04-26 19:08 | 27.14766 | 128.78560 | 36144 ft | 578 kts | 26° |
| 2026-04-26 19:08 | 27.18315 | 128.80713 | 36535 ft | 577 kts | 26° |
| 2026-04-26 19:08 | 27.21837 | 128.82854 | 36957 ft | 576 kts | 26° |
| 2026-04-26 19:08 | 27.25372 | 128.85005 | 37348 ft | 575 kts | 26° |
| 2026-04-26 19:09 | 27.28887 | 128.87146 | 37731 ft | 574 kts | 26° |
| 2026-04-26 19:09 | 27.32393 | 128.89284 | 38058 ft | 573 kts | 26° |
| 2026-04-26 19:09 | 27.35841 | 128.91387 | 38281 ft | 575 kts | 26° |
| 2026-04-26 19:09 | 27.39407 | 128.93564 | 38529 ft | 576 kts | 26° |
| 2026-04-26 19:10 | 27.42891 | 128.95693 | 38826 ft | 575 kts | 26° |
| 2026-04-26 19:10 | 27.46399 | 128.97839 | 38930 ft | 574 kts | 26° |
| 2026-04-26 19:10 | 27.49900 | 128.99982 | 38947 ft | 572 kts | 26° |
| 2026-04-26 19:11 | 27.56890 | 129.04264 | 39299 ft | 572 kts | 26° |
| 2026-04-26 19:11 | 27.60392 | 129.06413 | 39598 ft | 570 kts | 26° |
| 2026-04-26 19:11 | 27.63851 | 129.08536 | 39886 ft | 568 kts | 26° |
| 2026-04-26 19:11 | 27.67321 | 129.10667 | 40149 ft | 567 kts | 26° |
| 2026-04-26 19:12 | 27.70785 | 129.12796 | 40340 ft | 566 kts | 26° |
| 2026-04-26 19:12 | 27.77739 | 129.17073 | 40535 ft | 571 kts | 26° |
| 2026-04-26 19:12 | 27.81241 | 129.19231 | 40833 ft | 569 kts | 26° |
| 2026-04-26 19:13 | 27.84715 | 129.21373 | 40933 ft | 568 kts | 26° |
| 2026-04-26 19:13 | 27.91668 | 129.25663 | 40939 ft | 574 kts | 26° |
| 2026-04-26 19:14 | 27.98738 | 129.30032 | 40961 ft | 581 kts | 26° |
| 2026-04-26 19:14 | 28.05835 | 129.34425 | 40940 ft | 584 kts | 26° |
| 2026-04-26 19:15 | 28.12926 | 129.38823 | 40935 ft | 587 kts | 27° |
| 2026-04-26 19:15 | 28.20105 | 129.43282 | 40944 ft | 589 kts | 27° |
| 2026-04-26 19:16 | 28.27283 | 129.47757 | 40925 ft | 589 kts | 26° |
| 2026-04-26 19:16 | 28.34484 | 129.52235 | 40923 ft | 588 kts | 26° |
| 2026-04-26 19:17 | 28.41675 | 129.56657 | 40907 ft | 587 kts | 23° |
| 2026-04-26 19:17 | 28.45467 | 129.58307 | 40897 ft | 580 kts | 10° |
| 2026-04-26 19:17 | 28.49392 | 129.59234 | 40906 ft | 576 kts | 4° |
| 2026-04-26 19:18 | 28.57317 | 129.60529 | 40949 ft | 576 kts | 1° |
| 2026-04-26 19:18 | 28.65264 | 129.61641 | 40919 ft | 577 kts | 1° |
| 2026-04-26 19:19 | 28.73249 | 129.62796 | 40923 ft | 577 kts | 1° |
| 2026-04-26 19:19 | 28.81185 | 129.63996 | 40936 ft | 577 kts | 2° |
| 2026-04-26 19:20 | 28.89155 | 129.65221 | 40925 ft | 576 kts | 2° |
| 2026-04-26 19:20 | 28.97105 | 129.66443 | 40923 ft | 576 kts | 2° |
| 2026-04-26 19:21 | 29.05017 | 129.67657 | 40920 ft | 575 kts | 2° |
| 2026-04-26 19:21 | 29.12910 | 129.68869 | 40922 ft | 575 kts | 2° |
| 2026-04-26 19:22 | 29.20840 | 129.70097 | 40922 ft | 575 kts | 2° |
| 2026-04-26 19:22 | 29.28770 | 129.71316 | 40916 ft | 575 kts | 2° |
| 2026-04-26 19:23 | 29.36730 | 129.72543 | 40916 ft | 575 kts | 2° |
| 2026-04-26 19:23 | 29.44637 | 129.73764 | 40926 ft | 575 kts | 2° |
| 2026-04-26 19:24 | 29.52573 | 129.74994 | 40918 ft | 575 kts | 2° |
| 2026-04-26 19:24 | 29.64450 | 129.76839 | 40912 ft | 575 kts | 2° |
| 2026-04-26 19:25 | 29.71062 | 129.77868 | 40910 ft | 575 kts | 2° |
| 2026-04-26 19:25 | 29.80252 | 129.79300 | 40911 ft | 575 kts | 2° |
| 2026-04-26 19:26 | 29.88174 | 129.80536 | 40906 ft | 574 kts | 2° |
| 2026-04-26 19:26 | 29.96121 | 129.81779 | 40910 ft | 577 kts | 2° |
| 2026-04-26 19:27 | 30.04096 | 129.82984 | 40910 ft | 576 kts | 0° |
| 2026-04-26 19:27 | 30.12055 | 129.83838 | 40898 ft | 573 kts | 358° |
| 2026-04-26 19:28 | 30.19984 | 129.84600 | 40905 ft | 573 kts | 358° |
| 2026-04-26 19:28 | 30.27928 | 129.85416 | 40908 ft | 573 kts | 359° |
| 2026-04-26 19:29 | 30.35865 | 129.86273 | 40899 ft | 573 kts | 359° |
| 2026-04-26 19:29 | 30.43811 | 129.87147 | 40897 ft | 573 kts | 359° |
| 2026-04-26 19:30 | 30.51743 | 129.88008 | 40899 ft | 573 kts | 359° |
| 2026-04-26 19:30 | 30.58343 | 129.88725 | 40895 ft | 573 kts | 359° |
| 2026-04-26 19:31 | 30.67640 | 129.89738 | 40891 ft | 573 kts | 359° |
| 2026-04-26 19:31 | 30.75577 | 129.90606 | 40889 ft | 573 kts | 359° |
| 2026-04-26 19:32 | 30.83456 | 129.91470 | 40888 ft | 573 kts | 359° |
| 2026-04-26 19:32 | 30.91395 | 129.92343 | 40889 ft | 572 kts | 359° |
| 2026-04-26 19:33 | 30.99321 | 129.93213 | 40879 ft | 572 kts | 359° |
| 2026-04-26 19:33 | 31.07241 | 129.94083 | 40879 ft | 571 kts | 359° |
| 2026-04-26 19:34 | 31.15129 | 129.94952 | 40879 ft | 570 kts | 359° |
| 2026-04-26 19:34 | 31.23051 | 129.95828 | 40881 ft | 570 kts | 359° |
| 2026-04-26 19:35 | 31.30944 | 129.96699 | 40899 ft | 569 kts | 359° |
| 2026-04-26 19:35 | 31.38827 | 129.97366 | 40881 ft | 567 kts | 357° |
| 2026-04-26 19:36 | 31.44027 | 129.97733 | 40882 ft | 566 kts | 357° |
| 2026-04-26 19:36 | 31.54493 | 129.98500 | 40883 ft | 566 kts | 358° |
| 2026-04-26 19:37 | 31.62364 | 129.99118 | 40882 ft | 566 kts | 358° |
| 2026-04-26 19:37 | 31.70219 | 129.99746 | 40888 ft | 566 kts | 358° |
| 2026-04-26 19:38 | 31.78075 | 130.00375 | 40885 ft | 566 kts | 358° |
| 2026-04-26 19:38 | 31.85955 | 130.01005 | 40888 ft | 566 kts | 358° |
| 2026-04-26 19:39 | 31.89859 | 130.01318 | 40758 ft | 561 kts | 358° |
| 2026-04-26 19:39 | 31.93721 | 130.01632 | 40576 ft | 555 kts | 358° |
| 2026-04-26 19:39 | 31.97571 | 130.01943 | 40337 ft | 554 kts | 358° |
| 2026-04-26 19:39 | 32.01424 | 130.02250 | 40102 ft | 555 kts | 358° |
| 2026-04-26 19:40 | 32.05276 | 130.02562 | 39864 ft | 557 kts | 358° |
| 2026-04-26 19:40 | 32.09099 | 130.02871 | 39553 ft | 556 kts | 358° |
| 2026-04-26 19:40 | 32.12950 | 130.03183 | 39034 ft | 553 kts | 357° |
| 2026-04-26 19:40 | 32.16805 | 130.03494 | 38394 ft | 553 kts | 357° |
| 2026-04-26 19:41 | 32.20648 | 130.03799 | 37677 ft | 554 kts | 358° |
| 2026-04-26 19:41 | 32.24489 | 130.04104 | 37008 ft | 554 kts | 358° |
| 2026-04-26 19:41 | 32.28339 | 130.04410 | 36330 ft | 554 kts | 358° |
| 2026-04-26 19:41 | 32.29638 | 130.04514 | 36103 ft | 554 kts | 358° |
| 2026-04-26 19:42 | 32.36052 | 130.05026 | 34951 ft | 560 kts | 358° |
| 2026-04-26 19:42 | 32.39973 | 130.05339 | 34130 ft | 566 kts | 359° |
| 2026-04-26 19:42 | 32.43902 | 130.05654 | 33233 ft | 571 kts | 359° |
| 2026-04-26 19:42 | 32.47887 | 130.05976 | 32335 ft | 573 kts | 359° |
| 2026-04-26 19:43 | 32.51873 | 130.06297 | 31444 ft | 575 kts | 359° |
| 2026-04-26 19:43 | 32.55876 | 130.06625 | 30596 ft | 576 kts | 359° |
| 2026-04-26 19:43 | 32.59795 | 130.06727 | 29644 ft | 570 kts | 350° |
| 2026-04-26 19:43 | 32.63688 | 130.06108 | 28723 ft | 560 kts | 344° |
| 2026-04-26 19:44 | 32.66282 | 130.05548 | 28200 ft | 555 kts | 343° |
| 2026-04-26 19:44 | 32.70041 | 130.04660 | 27487 ft | 547 kts | 343° |
| 2026-04-26 19:44 | 32.73684 | 130.03745 | 26825 ft | 540 kts | 342° |
| 2026-04-26 19:44 | 32.77318 | 130.02805 | 26255 ft | 531 kts | 344° |
| 2026-04-26 19:45 | 32.80897 | 130.01877 | 25898 ft | 516 kts | 344° |
| 2026-04-26 19:45 | 32.84347 | 130.00990 | 25065 ft | 498 kts | 345° |
| 2026-04-26 19:45 | 32.87678 | 130.00134 | 24229 ft | 479 kts | 345° |
| 2026-04-26 19:45 | 32.90863 | 129.99317 | 23642 ft | 457 kts | 345° |
| 2026-04-26 19:46 | 32.93925 | 129.98530 | 22993 ft | 448 kts | 345° |
| 2026-04-26 19:46 | 32.96976 | 129.97745 | 22388 ft | 448 kts | 346° |
| 2026-04-26 19:46 | 32.99998 | 129.96970 | 21606 ft | 442 kts | 345° |
| 2026-04-26 19:46 | 33.02982 | 129.96206 | 20952 ft | 433 kts | 345° |
| 2026-04-26 19:47 | 33.05894 | 129.95461 | 20402 ft | 423 kts | 345° |
| 2026-04-26 19:47 | 33.07794 | 129.94975 | 20022 ft | 423 kts | 345° |
| 2026-04-26 19:47 | 33.11599 | 129.93998 | 19261 ft | 421 kts | 345° |
| 2026-04-26 19:47 | 33.14449 | 129.93265 | 18685 ft | 418 kts | 345° |
| 2026-04-26 19:48 | 33.17281 | 129.92539 | 18095 ft | 415 kts | 345° |
| 2026-04-26 19:48 | 33.20089 | 129.91820 | 17457 ft | 414 kts | 346° |
| 2026-04-26 19:48 | 33.22898 | 129.91101 | 16861 ft | 411 kts | 346° |
| 2026-04-26 19:48 | 33.25692 | 129.90381 | 16268 ft | 407 kts | 346° |
| 2026-04-26 19:49 | 33.28439 | 129.89672 | 15691 ft | 402 kts | 346° |
| 2026-04-26 19:49 | 33.31159 | 129.88971 | 15111 ft | 398 kts | 346° |
| 2026-04-26 19:49 | 33.33857 | 129.88275 | 14531 ft | 395 kts | 346° |
| 2026-04-26 19:49 | 33.36532 | 129.87586 | 13949 ft | 392 kts | 346° |
| 2026-04-26 19:50 | 33.39183 | 129.86903 | 13325 ft | 388 kts | 346° |
| 2026-04-26 19:50 | 33.41810 | 129.86225 | 12753 ft | 383 kts | 347° |
| 2026-04-26 19:50 | 33.44399 | 129.85558 | 12206 ft | 378 kts | 347° |
| 2026-04-26 19:50 | 33.46978 | 129.85014 | 11633 ft | 375 kts | 354° |
| 2026-04-26 19:51 | 33.49563 | 129.85211 | 11058 ft | 372 kts | 11° |
| 2026-04-26 19:51 | 33.52035 | 129.86011 | 10755 ft | 360 kts | 16° |
| 2026-04-26 19:51 | 33.54367 | 129.86862 | 10648 ft | 341 kts | 16° |
| 2026-04-26 19:51 | 33.56580 | 129.87668 | 10542 ft | 324 kts | 16° |
| 2026-04-26 19:52 | 33.58659 | 129.88419 | 10423 ft | 308 kts | 16° |
| 2026-04-26 19:52 | 33.60696 | 129.89152 | 10286 ft | 296 kts | 16° |
| 2026-04-26 19:52 | 33.62632 | 129.89847 | 10157 ft | 286 kts | 15° |
| 2026-04-26 19:52 | 33.64507 | 129.90520 | 10027 ft | 277 kts | 15° |
| 2026-04-26 19:53 | 33.66356 | 129.91182 | 9836 ft | 284 kts | 15° |
| 2026-04-26 19:53 | 33.68265 | 129.91862 | 9766 ft | 296 kts | 15° |
| 2026-04-26 19:53 | 33.70223 | 129.92562 | 9379 ft | 293 kts | 15° |
| 2026-04-26 19:53 | 33.72186 | 129.93264 | 8886 ft | 294 kts | 16° |
| 2026-04-26 19:54 | 33.74138 | 129.93963 | 8540 ft | 293 kts | 15° |
| 2026-04-26 19:54 | 33.76099 | 129.94665 | 8239 ft | 292 kts | 16° |
| 2026-04-26 19:54 | 33.78052 | 129.95263 | 7924 ft | 290 kts | 7° |
| 2026-04-26 19:54 | 33.80056 | 129.95491 | 7908 ft | 290 kts | 3° |
| 2026-04-26 19:55 | 33.82075 | 129.95647 | 7910 ft | 290 kts | 2° |
| 2026-04-26 19:55 | 33.84094 | 129.95805 | 7867 ft | 284 kts | 3° |
| 2026-04-26 19:55 | 33.86017 | 129.95958 | 7754 ft | 270 kts | 3° |
| 2026-04-26 19:55 | 33.87832 | 129.96262 | 7631 ft | 257 kts | 16° |
| 2026-04-26 19:56 | 33.89454 | 129.97061 | 7415 ft | 249 kts | 26° |
| 2026-04-26 19:56 | 33.90995 | 129.97983 | 7183 ft | 244 kts | 27° |
| 2026-04-26 19:56 | 33.92496 | 129.98891 | 6950 ft | 241 kts | 27° |
| 2026-04-26 19:56 | 33.93998 | 129.99796 | 6693 ft | 239 kts | 26° |
| 2026-04-26 19:57 | 33.95487 | 130.00687 | 6537 ft | 238 kts | 27° |
| 2026-04-26 19:57 | 33.97001 | 130.01594 | 6708 ft | 253 kts | 27° |
| 2026-04-26 19:57 | 33.98531 | 130.02822 | 6929 ft | 277 kts | 43° |
| 2026-04-26 19:57 | 33.99864 | 130.04507 | 6977 ft | 285 kts | 50° |
| 2026-04-26 19:58 | 34.01159 | 130.06329 | 6984 ft | 286 kts | 50° |
| 2026-04-26 19:58 | 34.02450 | 130.08147 | 6988 ft | 285 kts | 50° |
| 2026-04-26 19:58 | 34.03748 | 130.09961 | 6994 ft | 286 kts | 50° |
| 2026-04-26 19:58 | 34.05044 | 130.11782 | 6990 ft | 286 kts | 52° |
| 2026-04-26 19:59 | 34.06068 | 130.13828 | 6988 ft | 285 kts | 69° |
| 2026-04-26 19:59 | 34.06744 | 130.16064 | 6985 ft | 284 kts | 72° |
| 2026-04-26 19:59 | 34.07358 | 130.18327 | 6991 ft | 283 kts | 73° |
| 2026-04-26 19:59 | 34.07973 | 130.20586 | 6992 ft | 284 kts | 73° |
| 2026-04-26 20:00 | 34.08591 | 130.22838 | 6987 ft | 284 kts | 72° |
| 2026-04-26 20:00 | 34.09206 | 130.25113 | 6980 ft | 284 kts | 74° |
| 2026-04-26 20:00 | 34.09423 | 130.27457 | 6985 ft | 281 kts | 94° |
| 2026-04-26 20:00 | 34.09304 | 130.29800 | 6985 ft | 280 kts | 97° |
| 2026-04-26 20:01 | 34.09144 | 130.32139 | 6982 ft | 280 kts | 96° |
| 2026-04-26 20:01 | 34.08990 | 130.34481 | 6983 ft | 280 kts | 96° |
| 2026-04-26 20:01 | 34.08637 | 130.36771 | 6980 ft | 278 kts | 114° |
| 2026-04-26 20:01 | 34.07499 | 130.38545 | 6988 ft | 271 kts | 146° |
| 2026-04-26 20:02 | 34.05749 | 130.39290 | 6970 ft | 270 kts | 178° |
| 2026-04-26 20:02 | 34.03930 | 130.38859 | 6916 ft | 268 kts | 200° |
| 2026-04-26 20:02 | 34.02156 | 130.38095 | 6861 ft | 273 kts | 199° |
| 2026-04-26 20:02 | 34.00932 | 130.37604 | 6735 ft | 273 kts | 198° |
| 2026-04-26 20:03 | 33.98539 | 130.36717 | 6415 ft | 271 kts | 196° |
| 2026-04-26 20:03 | 33.96726 | 130.36087 | 6177 ft | 270 kts | 195° |
| 2026-04-26 20:03 | 33.94920 | 130.35474 | 5919 ft | 270 kts | 195° |
| 2026-04-26 20:03 | 33.93109 | 130.34868 | 5675 ft | 270 kts | 195° |
| 2026-04-26 20:04 | 33.91304 | 130.34268 | 5417 ft | 269 kts | 195° |
| 2026-04-26 20:04 | 33.89472 | 130.33830 | 5170 ft | 268 kts | 182° |
| 2026-04-26 20:04 | 33.87613 | 130.33747 | 4958 ft | 266 kts | 181° |
| 2026-04-26 20:04 | 33.85779 | 130.33689 | 4817 ft | 265 kts | 181° |
| 2026-04-26 20:05 | 33.83936 | 130.33637 | 4606 ft | 262 kts | 181° |
| 2026-04-26 20:05 | 33.82101 | 130.33582 | 4341 ft | 262 kts | 180° |
| 2026-04-26 20:05 | 33.80359 | 130.33513 | 4309 ft | 238 kts | 181° |
| 2026-04-26 20:05 | 33.78776 | 130.33377 | 4204 ft | 222 kts | 184° |
| 2026-04-26 20:06 | 33.77266 | 130.33204 | 3990 ft | 211 kts | 182° |
| 2026-04-26 20:06 | 33.75877 | 130.33331 | 3719 ft | 194 kts | 164° |
| 2026-04-26 20:06 | 33.74694 | 130.33983 | 3434 ft | 184 kts | 146° |
| 2026-04-26 20:06 | 33.73627 | 130.34784 | 3161 ft | 176 kts | 149° |
| 2026-04-26 20:07 | 33.72578 | 130.35479 | 2913 ft | 170 kts | 149° |
| 2026-04-26 20:07 | 33.71559 | 130.36171 | 2677 ft | 167 kts | 148° |
| 2026-04-26 20:07 | 33.70547 | 130.36870 | 2458 ft | 168 kts | 147° |
| 2026-04-26 20:07 | 33.69525 | 130.37572 | 2228 ft | 171 kts | 147° |
| 2026-04-26 20:08 | 33.68473 | 130.38295 | 1993 ft | 179 kts | 149° |
| 2026-04-26 20:08 | 33.67381 | 130.39041 | 1735 ft | 181 kts | 148° |
| 2026-04-26 20:08 | 33.66302 | 130.39783 | 1517 ft | 177 kts | 147° |
| 2026-04-26 20:08 | 33.65231 | 130.40520 | 1282 ft | 177 kts | 147° |
| 2026-04-26 20:09 | 33.64172 | 130.41247 | 1044 ft | 171 kts | 148° |
| 2026-04-26 20:09 | 33.63177 | 130.41931 | 824 ft | 157 kts | 149° |
| 2026-04-26 20:09 | 33.62297 | 130.42535 | 650 ft | 140 kts | 150° |
| 2026-04-26 20:09 | 33.61472 | 130.43101 | 469 ft | 134 kts | 153° |
| 2026-04-26 20:10 | 33.60641 | 130.43663 | 276 ft | 135 kts | 151° |
| 2026-04-26 20:10 | 33.59833 | 130.44229 | 102 ft | 134 kts | 151° |
| 2026-04-26 20:10 | 33.59042 | 130.44769 | 33 ft | 124 kts | 152° |
| 2026-04-26 20:10 | 33.58373 | 130.45219 | 39 ft | 98 kts | 150° |
| 2026-04-26 20:11 | 33.58000 | 130.45415 | 41 ft | 40 kts | 175° |
| 2026-04-26 20:11 | 33.57864 | 130.45384 | 41 ft | 9 kts | 266° |
| 2026-04-26 20:11 | 33.57907 | 130.45309 | 41 ft | 17 kts | 323° |
| 2026-04-26 20:12 | 33.58181 | 130.45121 | 39 ft | 26 kts | 330° |
| 2026-04-26 20:12 | 33.58253 | 130.45032 | 38 ft | 8 kts | 262° |
| 2026-04-26 20:12 | 33.58242 | 130.44923 | 38 ft | 17 kts | 267° |
| 2026-04-26 20:12 | 33.58241 | 130.44809 | 37 ft | 15 kts | 247° |
| 2026-04-26 20:13 | 33.58226 | 130.44777 | 37 ft | 0 kts | 239° |